sensor_id;sensor_type;location;lat;lon;timestamp;temperature;humidity
1021;DHT22;499;42.648;23.270;2022-10-18T00:00:17;6.20;69.00
1021;DHT22;499;42.648;23.270;2022-10-18T00:02:44;6.20;69.50
1021;DHT22;499;42.648;23.270;2022-10-18T00:05:11;6.20;70.10
1021;DHT22;499;42.648;23.270;2022-10-18T00:07:38;6.20;69.50
1021;DHT22;499;42.648;23.270;2022-10-18T00:10:06;6.20;69.30
1021;DHT22;499;42.648;23.270;2022-10-18T00:12:35;6.10;69.00
1021;DHT22;499;42.648;23.270;2022-10-18T00:15:04;6.10;70.50
1021;DHT22;499;42.648;23.270;2022-10-18T00:17:34;6.00;69.60
1021;DHT22;499;42.648;23.270;2022-10-18T00:20:01;6.00;72.60
1021;DHT22;499;42.648;23.270;2022-10-18T00:22:28;6.00;73.40
1021;DHT22;499;42.648;23.270;2022-10-18T00:24:56;5.90;71.60
1021;DHT22;499;42.648;23.270;2022-10-18T00:27:23;5.90;75.10
1021;DHT22;499;42.648;23.270;2022-10-18T00:29:51;5.80;75.40
1021;DHT22;499;42.648;23.270;2022-10-18T00:32:19;5.80;75.00
1021;DHT22;499;42.648;23.270;2022-10-18T00:34:47;5.70;76.90
1021;DHT22;499;42.648;23.270;2022-10-18T00:37:14;5.70;77.40
1021;DHT22;499;42.648;23.270;2022-10-18T00:39:42;5.70;76.90
1021;DHT22;499;42.648;23.270;2022-10-18T00:42:11;5.80;76.60
1021;DHT22;499;42.648;23.270;2022-10-18T00:45:11;5.80;73.90
1021;DHT22;499;42.648;23.270;2022-10-18T00:47:40;5.70;75.60
1021;DHT22;499;42.648;23.270;2022-10-18T00:50:09;5.80;75.00
1021;DHT22;499;42.648;23.270;2022-10-18T00:52:41;5.80;72.10
1021;DHT22;499;42.648;23.270;2022-10-18T00:55:09;5.80;73.20
1021;DHT22;499;42.648;23.270;2022-10-18T00:57:37;5.70;74.80
1021;DHT22;499;42.648;23.270;2022-10-18T01:00:06;5.80;74.00
1021;DHT22;499;42.648;23.270;2022-10-18T01:02:35;5.80;73.10
1021;DHT22;499;42.648;23.270;2022-10-18T01:05:02;5.80;72.80
1021;DHT22;499;42.648;23.270;2022-10-18T01:07:41;5.80;71.70
1021;DHT22;499;42.648;23.270;2022-10-18T01:10:20;5.80;72.60
1021;DHT22;499;42.648;23.270;2022-10-18T01:13:09;5.60;72.30
1021;DHT22;499;42.648;23.270;2022-10-18T01:15:42;5.50;74.70
1021;DHT22;499;42.648;23.270;2022-10-18T01:18:16;5.50;75.30
1021;DHT22;499;42.648;23.270;2022-10-18T01:27:16;5.40;76.60
1021;DHT22;499;42.648;23.270;2022-10-18T01:30:06;5.40;79.80
1021;DHT22;499;42.648;23.270;2022-10-18T01:32:40;5.40;79.30
1021;DHT22;499;42.648;23.270;2022-10-18T01:35:12;5.40;77.60
1021;DHT22;499;42.648;23.270;2022-10-18T01:37:41;5.30;79.60
1021;DHT22;499;42.648;23.270;2022-10-18T01:40:12;5.30;81.30
1021;DHT22;499;42.648;23.270;2022-10-18T01:42:40;5.20;80.20
1021;DHT22;499;42.648;23.270;2022-10-18T01:45:09;5.20;82.30
1021;DHT22;499;42.648;23.270;2022-10-18T01:47:38;5.10;83.60
1021;DHT22;499;42.648;23.270;2022-10-18T01:50:06;5.00;86.90
1021;DHT22;499;42.648;23.270;2022-10-18T01:52:34;5.00;88.00
1021;DHT22;499;42.648;23.270;2022-10-18T01:55:02;5.10;87.30
1021;DHT22;499;42.648;23.270;2022-10-18T01:57:35;5.10;88.10
1021;DHT22;499;42.648;23.270;2022-10-18T02:00:07;5.20;87.20
1021;DHT22;499;42.648;23.270;2022-10-18T02:02:44;5.30;85.70
1021;DHT22;499;42.648;23.270;2022-10-18T02:05:19;5.10;83.60
1021;DHT22;499;42.648;23.270;2022-10-18T02:07:54;5.10;87.30
1021;DHT22;499;42.648;23.270;2022-10-18T02:10:27;5.20;86.10
1021;DHT22;499;42.648;23.270;2022-10-18T02:12:56;5.20;83.60
1021;DHT22;499;42.648;23.270;2022-10-18T02:15:27;5.00;85.30
1021;DHT22;499;42.648;23.270;2022-10-18T02:17:57;4.90;88.40
1021;DHT22;499;42.648;23.270;2022-10-18T02:20:25;4.90;89.00
1021;DHT22;499;42.648;23.270;2022-10-18T02:22:55;4.90;90.30
1021;DHT22;499;42.648;23.270;2022-10-18T02:25:24;5.00;90.10
1021;DHT22;499;42.648;23.270;2022-10-18T02:27:53;5.00;86.50
1021;DHT22;499;42.648;23.270;2022-10-18T02:30:23;5.00;86.60
1021;DHT22;499;42.648;23.270;2022-10-18T02:32:54;5.00;86.50
1021;DHT22;499;42.648;23.270;2022-10-18T02:35:26;4.90;84.30
1021;DHT22;499;42.648;23.270;2022-10-18T02:37:56;4.90;87.90
1021;DHT22;499;42.648;23.270;2022-10-18T02:40:24;4.90;86.20
1021;DHT22;499;42.648;23.270;2022-10-18T02:42:54;4.90;87.90
1021;DHT22;499;42.648;23.270;2022-10-18T02:45:23;5.00;87.40
1021;DHT22;499;42.648;23.270;2022-10-18T02:47:50;5.00;85.50
1021;DHT22;499;42.648;23.270;2022-10-18T02:50:18;5.00;85.10
1021;DHT22;499;42.648;23.270;2022-10-18T02:52:46;4.80;84.60
1021;DHT22;499;42.648;23.270;2022-10-18T02:55:13;4.70;86.40
1021;DHT22;499;42.648;23.270;2022-10-18T02:57:40;4.70;88.00
1021;DHT22;499;42.648;23.270;2022-10-18T03:00:09;4.80;88.30
1021;DHT22;499;42.648;23.270;2022-10-18T03:02:36;4.80;89.10
1021;DHT22;499;42.648;23.270;2022-10-18T03:05:03;4.70;88.30
1021;DHT22;499;42.648;23.270;2022-10-18T03:07:30;4.70;89.60
1021;DHT22;499;42.648;23.270;2022-10-18T03:09:59;4.80;89.90
1021;DHT22;499;42.648;23.270;2022-10-18T03:12:26;4.80;89.30
1021;DHT22;499;42.648;23.270;2022-10-18T03:14:53;4.80;89.10
1021;DHT22;499;42.648;23.270;2022-10-18T03:17:20;4.70;88.90
1021;DHT22;499;42.648;23.270;2022-10-18T03:19:47;4.60;90.40
1021;DHT22;499;42.648;23.270;2022-10-18T03:22:14;4.60;90.60
1021;DHT22;499;42.648;23.270;2022-10-18T03:24:41;4.60;90.70
1021;DHT22;499;42.648;23.270;2022-10-18T03:27:10;4.40;91.30
1021;DHT22;499;42.648;23.270;2022-10-18T03:29:37;4.40;92.80
1021;DHT22;499;42.648;23.270;2022-10-18T03:32:04;4.40;91.90
1021;DHT22;499;42.648;23.270;2022-10-18T03:34:31;4.50;91.80
1021;DHT22;499;42.648;23.270;2022-10-18T03:36:58;4.40;90.80
1021;DHT22;499;42.648;23.270;2022-10-18T03:39:26;4.30;90.80
1021;DHT22;499;42.648;23.270;2022-10-18T03:41:53;4.30;91.20
1021;DHT22;499;42.648;23.270;2022-10-18T03:44:21;4.20;91.50
1021;DHT22;499;42.648;23.270;2022-10-18T03:46:48;4.20;91.80
1021;DHT22;499;42.648;23.270;2022-10-18T03:49:15;4.30;92.00
1021;DHT22;499;42.648;23.270;2022-10-18T03:51:42;4.30;90.80
1021;DHT22;499;42.648;23.270;2022-10-18T03:54:09;4.30;90.80
1021;DHT22;499;42.648;23.270;2022-10-18T03:56:36;4.30;90.90
1021;DHT22;499;42.648;23.270;2022-10-18T03:59:03;4.30;90.80
1021;DHT22;499;42.648;23.270;2022-10-18T04:01:32;4.10;90.70
1021;DHT22;499;42.648;23.270;2022-10-18T04:03:59;4.10;91.10
1021;DHT22;499;42.648;23.270;2022-10-18T04:06:26;4.10;91.60
1021;DHT22;499;42.648;23.270;2022-10-18T04:08:54;4.10;91.40
1021;DHT22;499;42.648;23.270;2022-10-18T04:11:21;4.10;92.40
1021;DHT22;499;42.648;23.270;2022-10-18T04:13:48;4.00;92.70
1021;DHT22;499;42.648;23.270;2022-10-18T04:16:15;4.00;93.00
1021;DHT22;499;42.648;23.270;2022-10-18T04:18:44;4.10;93.20
1021;DHT22;499;42.648;23.270;2022-10-18T04:21:11;4.10;92.10
1021;DHT22;499;42.648;23.270;2022-10-18T04:23:38;4.10;92.50
1021;DHT22;499;42.648;23.270;2022-10-18T04:26:05;4.10;91.10
1021;DHT22;499;42.648;23.270;2022-10-18T04:28:32;4.10;90.30
1021;DHT22;499;42.648;23.270;2022-10-18T04:31:05;4.20;89.70
1021;DHT22;499;42.648;23.270;2022-10-18T04:33:32;4.10;86.40
1021;DHT22;499;42.648;23.270;2022-10-18T04:36:00;4.00;86.70
1021;DHT22;499;42.648;23.270;2022-10-18T04:38:27;4.00;87.50
1021;DHT22;499;42.648;23.270;2022-10-18T04:40:54;4.00;89.20
1021;DHT22;499;42.648;23.270;2022-10-18T04:43:22;3.90;89.80
1021;DHT22;499;42.648;23.270;2022-10-18T04:45:49;4.00;90.60
1021;DHT22;499;42.648;23.270;2022-10-18T04:48:17;3.90;90.40
1021;DHT22;499;42.648;23.270;2022-10-18T04:50:47;4.00;90.30
1021;DHT22;499;42.648;23.270;2022-10-18T04:53:16;4.00;88.80
1021;DHT22;499;42.648;23.270;2022-10-18T04:55:44;4.00;88.00
1021;DHT22;499;42.648;23.270;2022-10-18T04:58:12;4.00;88.80
1021;DHT22;499;42.648;23.270;2022-10-18T05:00:39;4.00;87.20
1021;DHT22;499;42.648;23.270;2022-10-18T05:03:07;4.00;87.10
1021;DHT22;499;42.648;23.270;2022-10-18T05:05:34;4.10;87.10
1021;DHT22;499;42.648;23.270;2022-10-18T05:08:01;4.10;87.60
1021;DHT22;499;42.648;23.270;2022-10-18T05:10:29;4.10;87.10
1021;DHT22;499;42.648;23.270;2022-10-18T05:12:56;4.20;89.00
1021;DHT22;499;42.648;23.270;2022-10-18T05:15:23;4.40;86.30
1021;DHT22;499;42.648;23.270;2022-10-18T05:17:50;4.40;83.90
1021;DHT22;499;42.648;23.270;2022-10-18T05:20:17;4.50;84.80
1021;DHT22;499;42.648;23.270;2022-10-18T05:22:44;4.70;88.80
1021;DHT22;499;42.648;23.270;2022-10-18T05:25:11;5.00;86.30
1021;DHT22;499;42.648;23.270;2022-10-18T05:27:40;5.10;83.50
1021;DHT22;499;42.648;23.270;2022-10-18T05:30:07;5.10;78.00
1021;DHT22;499;42.648;23.270;2022-10-18T05:32:34;4.80;80.70
1021;DHT22;499;42.648;23.270;2022-10-18T05:35:02;4.90;86.10
1021;DHT22;499;42.648;23.270;2022-10-18T05:37:29;5.20;88.60
1021;DHT22;499;42.648;23.270;2022-10-18T05:39:56;5.40;86.90
1021;DHT22;499;42.648;23.270;2022-10-18T05:42:23;5.50;83.90
1021;DHT22;499;42.648;23.270;2022-10-18T05:44:51;5.60;80.90
1021;DHT22;499;42.648;23.270;2022-10-18T05:47:18;5.70;79.50
1021;DHT22;499;42.648;23.270;2022-10-18T05:49:45;5.70;78.50
1021;DHT22;499;42.648;23.270;2022-10-18T05:52:13;5.80;76.80
1021;DHT22;499;42.648;23.270;2022-10-18T05:54:41;5.90;77.20
1021;DHT22;499;42.648;23.270;2022-10-18T05:57:08;5.90;75.80
1021;DHT22;499;42.648;23.270;2022-10-18T05:59:35;5.90;75.10
1021;DHT22;499;42.648;23.270;2022-10-18T06:02:04;5.80;75.00
1021;DHT22;499;42.648;23.270;2022-10-18T06:04:31;5.90;77.50
1021;DHT22;499;42.648;23.270;2022-10-18T06:06:59;6.00;75.20
1021;DHT22;499;42.648;23.270;2022-10-18T06:09:27;6.20;76.20
1021;DHT22;499;42.648;23.270;2022-10-18T06:11:55;6.20;75.60
1021;DHT22;499;42.648;23.270;2022-10-18T06:14:23;6.40;75.60
1021;DHT22;499;42.648;23.270;2022-10-18T06:16:50;6.50;74.80
1021;DHT22;499;42.648;23.270;2022-10-18T06:19:18;6.50;74.40
1021;DHT22;499;42.648;23.270;2022-10-18T06:21:45;6.60;72.40
1021;DHT22;499;42.648;23.270;2022-10-18T06:24:12;6.70;71.00
1021;DHT22;499;42.648;23.270;2022-10-18T06:26:39;6.80;68.90
1021;DHT22;499;42.648;23.270;2022-10-18T06:29:06;7.00;67.90
1021;DHT22;499;42.648;23.270;2022-10-18T06:31:33;7.00;67.00
1021;DHT22;499;42.648;23.270;2022-10-18T06:34:00;7.10;67.50
1021;DHT22;499;42.648;23.270;2022-10-18T06:36:30;7.30;66.40
1021;DHT22;499;42.648;23.270;2022-10-18T06:38:57;7.40;59.00
1021;DHT22;499;42.648;23.270;2022-10-18T06:41:25;7.30;59.10
1021;DHT22;499;42.648;23.270;2022-10-18T06:43:53;7.20;61.60
1021;DHT22;499;42.648;23.270;2022-10-18T06:46:22;7.30;65.10
1021;DHT22;499;42.648;23.270;2022-10-18T06:48:49;7.40;64.80
1021;DHT22;499;42.648;23.270;2022-10-18T06:51:16;7.40;57.80
1021;DHT22;499;42.648;23.270;2022-10-18T06:53:46;7.40;57.20
1021;DHT22;499;42.648;23.270;2022-10-18T06:56:13;7.50;56.80
1021;DHT22;499;42.648;23.270;2022-10-18T06:58:40;7.50;58.20
1021;DHT22;499;42.648;23.270;2022-10-18T07:01:09;7.50;58.80
1021;DHT22;499;42.648;23.270;2022-10-18T07:03:36;7.50;56.20
1021;DHT22;499;42.648;23.270;2022-10-18T07:06:05;7.50;56.90
1021;DHT22;499;42.648;23.270;2022-10-18T07:08:32;7.60;54.00
1021;DHT22;499;42.648;23.270;2022-10-18T07:11:02;7.60;53.20
1021;DHT22;499;42.648;23.270;2022-10-18T07:13:30;7.60;52.50
1021;DHT22;499;42.648;23.270;2022-10-18T07:16:02;7.60;53.60
1021;DHT22;499;42.648;23.270;2022-10-18T07:18:31;7.80;56.50
1021;DHT22;499;42.648;23.270;2022-10-18T07:21:00;7.80;53.30
1021;DHT22;499;42.648;23.270;2022-10-18T07:23:28;7.90;55.00
1021;DHT22;499;42.648;23.270;2022-10-18T07:25:55;8.10;53.60
1021;DHT22;499;42.648;23.270;2022-10-18T07:28:24;8.20;54.70
1021;DHT22;499;42.648;23.270;2022-10-18T07:30:51;8.40;54.90
1021;DHT22;499;42.648;23.270;2022-10-18T07:33:18;8.50;51.20
1021;DHT22;499;42.648;23.270;2022-10-18T07:35:45;8.60;48.20
1021;DHT22;499;42.648;23.270;2022-10-18T07:38:12;8.40;50.40
1021;DHT22;499;42.648;23.270;2022-10-18T07:40:39;8.60;49.50
1021;DHT22;499;42.648;23.270;2022-10-18T07:43:06;8.70;50.70
1021;DHT22;499;42.648;23.270;2022-10-18T07:45:35;8.90;46.20
1021;DHT22;499;42.648;23.270;2022-10-18T07:48:02;8.90;45.90
1021;DHT22;499;42.648;23.270;2022-10-18T07:50:29;9.00;43.50
1021;DHT22;499;42.648;23.270;2022-10-18T07:52:57;9.00;41.80
1021;DHT22;499;42.648;23.270;2022-10-18T07:55:24;9.10;44.40
1021;DHT22;499;42.648;23.270;2022-10-18T07:57:51;9.10;45.10
1021;DHT22;499;42.648;23.270;2022-10-18T08:00:18;9.10;45.30
1021;DHT22;499;42.648;23.270;2022-10-18T08:02:47;9.20;45.00
1021;DHT22;499;42.648;23.270;2022-10-18T08:05:14;9.30;45.00
1021;DHT22;499;42.648;23.270;2022-10-18T08:07:42;9.40;44.50
1021;DHT22;499;42.648;23.270;2022-10-18T08:10:09;9.50;41.00
1021;DHT22;499;42.648;23.270;2022-10-18T08:12:36;9.50;41.10
1021;DHT22;499;42.648;23.270;2022-10-18T08:15:04;9.60;42.90
1021;DHT22;499;42.648;23.270;2022-10-18T08:17:31;9.70;44.70
1021;DHT22;499;42.648;23.270;2022-10-18T08:19:59;9.90;42.90
1021;DHT22;499;42.648;23.270;2022-10-18T08:22:26;9.90;39.20
1021;DHT22;499;42.648;23.270;2022-10-18T08:24:53;10.00;39.50
1021;DHT22;499;42.648;23.270;2022-10-18T08:27:20;10.00;39.70
1021;DHT22;499;42.648;23.270;2022-10-18T08:29:49;10.20;39.70
1021;DHT22;499;42.648;23.270;2022-10-18T08:32:16;10.20;39.70
1021;DHT22;499;42.648;23.270;2022-10-18T08:34:43;10.40;38.00
1021;DHT22;499;42.648;23.270;2022-10-18T08:37:13;10.40;36.80
1021;DHT22;499;42.648;23.270;2022-10-18T08:39:40;10.40;36.10
1021;DHT22;499;42.648;23.270;2022-10-18T08:42:16;10.60;38.40
1021;DHT22;499;42.648;23.270;2022-10-18T08:44:48;10.70;36.30
1021;DHT22;499;42.648;23.270;2022-10-18T08:47:18;10.90;34.50
1021;DHT22;499;42.648;23.270;2022-10-18T08:49:49;10.90;32.60
1021;DHT22;499;42.648;23.270;2022-10-18T08:52:25;11.00;31.90
1021;DHT22;499;42.648;23.270;2022-10-18T08:54:59;11.00;33.30
1021;DHT22;499;42.648;23.270;2022-10-18T08:57:28;11.10;32.90
1021;DHT22;499;42.648;23.270;2022-10-18T08:59:56;11.20;32.00
1021;DHT22;499;42.648;23.270;2022-10-18T09:02:34;11.10;30.40
1021;DHT22;499;42.648;23.270;2022-10-18T09:05:08;11.20;32.00
1021;DHT22;499;42.648;23.270;2022-10-18T09:08:03;11.30;30.00
1021;DHT22;499;42.648;23.270;2022-10-18T09:10:42;11.40;30.40
1021;DHT22;499;42.648;23.270;2022-10-18T09:13:34;11.60;29.90
1021;DHT22;499;42.648;23.270;2022-10-18T09:16:05;11.70;29.00
1021;DHT22;499;42.648;23.270;2022-10-18T09:18:50;11.50;27.50
1021;DHT22;499;42.648;23.270;2022-10-18T09:21:19;11.70;28.20
1021;DHT22;499;42.648;23.270;2022-10-18T09:23:49;11.80;28.30
1021;DHT22;499;42.648;23.270;2022-10-18T09:26:23;11.90;28.40
1021;DHT22;499;42.648;23.270;2022-10-18T09:29:01;12.00;26.80
1021;DHT22;499;42.648;23.270;2022-10-18T09:31:39;12.00;26.80
1021;DHT22;499;42.648;23.270;2022-10-18T09:34:11;12.20;27.00
1021;DHT22;499;42.648;23.270;2022-10-18T09:36:39;12.30;27.30
1021;DHT22;499;42.648;23.270;2022-10-18T09:39:12;12.50;25.00
1021;DHT22;499;42.648;23.270;2022-10-18T09:41:43;12.60;25.00
1021;DHT22;499;42.648;23.270;2022-10-18T09:44:16;12.70;25.10
1021;DHT22;499;42.648;23.270;2022-10-18T09:46:48;12.80;24.70
1021;DHT22;499;42.648;23.270;2022-10-18T09:49:20;12.90;24.30
1021;DHT22;499;42.648;23.270;2022-10-18T09:51:48;12.90;24.50
1021;DHT22;499;42.648;23.270;2022-10-18T09:54:32;13.00;23.60
1021;DHT22;499;42.648;23.270;2022-10-18T09:57:03;13.10;23.60
1021;DHT22;499;42.648;23.270;2022-10-18T09:59:35;13.30;23.50
1021;DHT22;499;42.648;23.270;2022-10-18T10:02:03;13.40;22.60
1021;DHT22;499;42.648;23.270;2022-10-18T10:04:31;13.50;22.40
1021;DHT22;499;42.648;23.270;2022-10-18T10:06:59;13.60;21.90
1021;DHT22;499;42.648;23.270;2022-10-18T10:09:28;13.70;21.90
1021;DHT22;499;42.648;23.270;2022-10-18T10:11:57;13.70;21.40
1021;DHT22;499;42.648;23.270;2022-10-18T10:14:25;13.80;21.90
1021;DHT22;499;42.648;23.270;2022-10-18T10:16:54;13.90;22.00
1021;DHT22;499;42.648;23.270;2022-10-18T10:19:28;14.00;21.60
1021;DHT22;499;42.648;23.270;2022-10-18T10:22:03;14.10;20.70
1021;DHT22;499;42.648;23.270;2022-10-18T10:24:42;14.10;20.40
1021;DHT22;499;42.648;23.270;2022-10-18T10:27:17;14.20;20.00
1021;DHT22;499;42.648;23.270;2022-10-18T10:29:54;14.20;19.30
1021;DHT22;499;42.648;23.270;2022-10-18T10:32:25;14.40;18.50
1021;DHT22;499;42.648;23.270;2022-10-18T10:34:52;14.50;19.40
1021;DHT22;499;42.648;23.270;2022-10-18T10:37:31;14.60;18.10
1021;DHT22;499;42.648;23.270;2022-10-18T10:40:13;14.70;18.20
1021;DHT22;499;42.648;23.270;2022-10-18T10:43:00;14.70;18.10
1021;DHT22;499;42.648;23.270;2022-10-18T10:45:30;14.80;17.50
1021;DHT22;499;42.648;23.270;2022-10-18T10:48:04;14.90;18.10
1021;DHT22;499;42.648;23.270;2022-10-18T10:50:58;15.00;18.00
1021;DHT22;499;42.648;23.270;2022-10-18T10:53:38;15.10;15.00
1021;DHT22;499;42.648;23.270;2022-10-18T10:56:15;15.30;15.60
1021;DHT22;499;42.648;23.270;2022-10-18T10:58:44;15.30;15.00
1021;DHT22;499;42.648;23.270;2022-10-18T11:01:26;15.30;14.80
1021;DHT22;499;42.648;23.270;2022-10-18T11:03:55;15.40;14.80
1021;DHT22;499;42.648;23.270;2022-10-18T11:09:36;15.60;14.40
1021;DHT22;499;42.648;23.270;2022-10-18T11:15:02;15.60;12.20
1021;DHT22;499;42.648;23.270;2022-10-18T11:17:34;15.70;12.40
1021;DHT22;499;42.648;23.270;2022-10-18T11:20:20;15.70;12.10
1021;DHT22;499;42.648;23.270;2022-10-18T11:22:58;15.80;11.30
1021;DHT22;499;42.648;23.270;2022-10-18T11:25:38;15.90;11.00
1021;DHT22;499;42.648;23.270;2022-10-18T11:28:14;16.00;11.00
1021;DHT22;499;42.648;23.270;2022-10-18T11:30:53;16.10;11.10
1021;DHT22;499;42.648;23.270;2022-10-18T11:33:35;16.10;10.30
1021;DHT22;499;42.648;23.270;2022-10-18T11:36:06;16.10;10.30
1021;DHT22;499;42.648;23.270;2022-10-18T11:38:42;16.10;10.90
1021;DHT22;499;42.648;23.270;2022-10-18T11:41:19;16.10;10.50
1021;DHT22;499;42.648;23.270;2022-10-18T11:43:53;16.30;11.10
1021;DHT22;499;42.648;23.270;2022-10-18T11:46:34;16.30;9.60
1021;DHT22;499;42.648;23.270;2022-10-18T11:49:14;16.40;9.70
1021;DHT22;499;42.648;23.270;2022-10-18T11:51:55;16.50;9.50
1021;DHT22;499;42.648;23.270;2022-10-18T11:54:39;16.60;9.60
1021;DHT22;499;42.648;23.270;2022-10-18T11:57:19;16.60;9.90
1021;DHT22;499;42.648;23.270;2022-10-18T11:59:55;16.70;9.40
1021;DHT22;499;42.648;23.270;2022-10-18T12:02:53;16.70;8.50
1021;DHT22;499;42.648;23.270;2022-10-18T12:05:22;16.80;10.10
1021;DHT22;499;42.648;23.270;2022-10-18T12:07:54;16.80;9.30
1021;DHT22;499;42.648;23.270;2022-10-18T12:10:22;16.90;7.90
1021;DHT22;499;42.648;23.270;2022-10-18T12:12:53;16.90;7.90
1021;DHT22;499;42.648;23.270;2022-10-18T12:15:24;16.90;7.90
1021;DHT22;499;42.648;23.270;2022-10-18T12:17:55;17.00;9.30
1021;DHT22;499;42.648;23.270;2022-10-18T12:20:28;17.00;9.00
1021;DHT22;499;42.648;23.270;2022-10-18T12:23:00;17.10;8.80
1021;DHT22;499;42.648;23.270;2022-10-18T12:25:30;17.10;6.60
1021;DHT22;499;42.648;23.270;2022-10-18T12:28:04;17.20;7.60
1021;DHT22;499;42.648;23.270;2022-10-18T12:30:38;17.30;9.40
1021;DHT22;499;42.648;23.270;2022-10-18T12:33:12;17.40;7.70
1021;DHT22;499;42.648;23.270;2022-10-18T12:35:53;17.50;9.30
1021;DHT22;499;42.648;23.270;2022-10-18T12:38:24;17.50;9.80
1021;DHT22;499;42.648;23.270;2022-10-18T12:40:53;17.50;9.20
1021;DHT22;499;42.648;23.270;2022-10-18T12:43:23;17.50;8.30
1021;DHT22;499;42.648;23.270;2022-10-18T12:45:53;17.60;9.40
1021;DHT22;499;42.648;23.270;2022-10-18T12:48:33;17.60;9.50
1021;DHT22;499;42.648;23.270;2022-10-18T12:51:06;17.70;7.60
1021;DHT22;499;42.648;23.270;2022-10-18T12:53:39;17.60;10.50
1021;DHT22;499;42.648;23.270;2022-10-18T12:56:33;17.60;10.80
1021;DHT22;499;42.648;23.270;2022-10-18T13:02:26;17.70;9.70
1021;DHT22;499;42.648;23.270;2022-10-18T13:04:55;17.60;10.30
1021;DHT22;499;42.648;23.270;2022-10-18T13:07:37;17.60;10.50
1021;DHT22;499;42.648;23.270;2022-10-18T13:10:37;17.60;10.90
1021;DHT22;499;42.648;23.270;2022-10-18T13:13:27;17.50;11.20
1021;DHT22;499;42.648;23.270;2022-10-18T13:16:02;17.50;10.40
1021;DHT22;499;42.648;23.270;2022-10-18T13:18:40;17.30;9.90
1021;DHT22;499;42.648;23.270;2022-10-18T13:21:17;17.30;10.30
1021;DHT22;499;42.648;23.270;2022-10-18T13:24:00;17.20;9.10
1021;DHT22;499;42.648;23.270;2022-10-18T13:26:35;17.10;8.70
1021;DHT22;499;42.648;23.270;2022-10-18T13:29:23;17.00;8.00
1021;DHT22;499;42.648;23.270;2022-10-18T13:31:58;17.00;8.00
1021;DHT22;499;42.648;23.270;2022-10-18T13:34:31;16.90;7.90
1021;DHT22;499;42.648;23.270;2022-10-18T13:37:02;16.80;7.90
1021;DHT22;499;42.648;23.270;2022-10-18T13:39:31;16.70;8.20
1021;DHT22;499;42.648;23.270;2022-10-18T13:42:29;16.60;7.70
1021;DHT22;499;42.648;23.270;2022-10-18T13:53:59;16.20;8.10
1021;DHT22;499;42.648;23.270;2022-10-18T13:56:52;16.00;9.50
1021;DHT22;499;42.648;23.270;2022-10-18T13:59:31;16.00;9.90
1021;DHT22;499;42.648;23.270;2022-10-18T14:02:22;15.90;9.80
1021;DHT22;499;42.648;23.270;2022-10-18T14:05:13;15.80;10.50
1021;DHT22;499;42.648;23.270;2022-10-18T14:07:44;15.80;10.50
1021;DHT22;499;42.648;23.270;2022-10-18T14:10:21;15.60;9.90
1021;DHT22;499;42.648;23.270;2022-10-18T14:12:54;15.50;10.00
1021;DHT22;499;42.648;23.270;2022-10-18T14:15:25;15.40;9.80
1021;DHT22;499;42.648;23.270;2022-10-18T14:17:57;15.30;10.30
1021;DHT22;499;42.648;23.270;2022-10-18T14:20:28;15.00;10.60
1021;DHT22;499;42.648;23.270;2022-10-18T14:23:03;14.70;10.70
1021;DHT22;499;42.648;23.270;2022-10-18T14:25:34;14.60;11.20
1021;DHT22;499;42.648;23.270;2022-10-18T14:28:03;14.50;11.80
1021;DHT22;499;42.648;23.270;2022-10-18T14:30:30;14.40;12.00
1021;DHT22;499;42.648;23.270;2022-10-18T14:32:58;14.20;11.50
1021;DHT22;499;42.648;23.270;2022-10-18T14:35:26;14.00;11.90
1021;DHT22;499;42.648;23.270;2022-10-18T14:37:55;14.00;12.20
1021;DHT22;499;42.648;23.270;2022-10-18T14:40:32;13.80;12.30
1021;DHT22;499;42.648;23.270;2022-10-18T14:43:02;13.70;11.80
1021;DHT22;499;42.648;23.270;2022-10-18T14:45:30;13.60;12.40
1021;DHT22;499;42.648;23.270;2022-10-18T14:48:22;13.50;11.90
1021;DHT22;499;42.648;23.270;2022-10-18T14:50:55;13.40;12.00
1021;DHT22;499;42.648;23.270;2022-10-18T14:53:29;13.20;12.60
1021;DHT22;499;42.648;23.270;2022-10-18T14:56:03;13.10;13.50
1021;DHT22;499;42.648;23.270;2022-10-18T14:58:31;13.10;13.60
1021;DHT22;499;42.648;23.270;2022-10-18T15:01:01;13.00;13.50
1021;DHT22;499;42.648;23.270;2022-10-18T15:03:31;12.80;13.70
1021;DHT22;499;42.648;23.270;2022-10-18T15:06:03;12.80;13.40
1021;DHT22;499;42.648;23.270;2022-10-18T15:08:36;12.70;13.90
1021;DHT22;499;42.648;23.270;2022-10-18T15:11:07;12.60;13.70
1021;DHT22;499;42.648;23.270;2022-10-18T15:13:37;12.60;13.90
1021;DHT22;499;42.648;23.270;2022-10-18T15:16:14;12.60;13.60
1021;DHT22;499;42.648;23.270;2022-10-18T15:18:42;12.50;13.20
1021;DHT22;499;42.648;23.270;2022-10-18T15:21:20;12.50;13.20
1021;DHT22;499;42.648;23.270;2022-10-18T15:23:48;12.40;13.00
1021;DHT22;499;42.648;23.270;2022-10-18T15:26:23;12.40;13.10
1021;DHT22;499;42.648;23.270;2022-10-18T15:28:52;12.40;13.10
1021;DHT22;499;42.648;23.270;2022-10-18T15:31:26;12.30;13.00
1021;DHT22;499;42.648;23.270;2022-10-18T15:34:07;12.20;13.00
1021;DHT22;499;42.648;23.270;2022-10-18T15:36:36;12.20;13.00
1021;DHT22;499;42.648;23.270;2022-10-18T15:39:05;12.20;13.00
1021;DHT22;499;42.648;23.270;2022-10-18T15:41:46;12.10;12.90
1021;DHT22;499;42.648;23.270;2022-10-18T15:44:21;12.00;12.80
1021;DHT22;499;42.648;23.270;2022-10-18T15:47:15;11.90;13.30
1021;DHT22;499;42.648;23.270;2022-10-18T15:49:52;11.80;12.70
1021;DHT22;499;42.648;23.270;2022-10-18T15:52:35;11.80;13.20
1021;DHT22;499;42.648;23.270;2022-10-18T15:58:10;11.60;12.50
1021;DHT22;499;42.648;23.270;2022-10-18T16:00:37;11.60;12.50
1021;DHT22;499;42.648;23.270;2022-10-18T16:03:06;11.50;12.50
1021;DHT22;499;42.648;23.270;2022-10-18T16:05:34;11.40;12.50
1021;DHT22;499;42.648;23.270;2022-10-18T16:08:02;11.30;13.70
1021;DHT22;499;42.648;23.270;2022-10-18T16:10:29;11.30;13.10
1021;DHT22;499;42.648;23.270;2022-10-18T16:12:56;11.30;12.60
1021;DHT22;499;42.648;23.270;2022-10-18T16:15:25;11.10;13.10
1021;DHT22;499;42.648;23.270;2022-10-18T16:17:52;11.00;14.10
1021;DHT22;499;42.648;23.270;2022-10-18T16:20:22;11.00;14.40
1021;DHT22;499;42.648;23.270;2022-10-18T16:22:49;10.90;13.90
1021;DHT22;499;42.648;23.270;2022-10-18T16:25:16;10.80;13.40
1021;DHT22;499;42.648;23.270;2022-10-18T16:27:43;10.70;13.90
1021;DHT22;499;42.648;23.270;2022-10-18T16:30:13;10.80;14.40
1021;DHT22;499;42.648;23.270;2022-10-18T16:32:42;10.70;14.60
1021;DHT22;499;42.648;23.270;2022-10-18T16:35:10;10.70;14.10
1021;DHT22;499;42.648;23.270;2022-10-18T16:37:38;10.60;13.60
1021;DHT22;499;42.648;23.270;2022-10-18T16:40:20;10.50;14.40
1021;DHT22;499;42.648;23.270;2022-10-18T16:42:48;10.20;14.60
1021;DHT22;499;42.648;23.270;2022-10-18T16:45:15;10.50;14.80
1021;DHT22;499;42.648;23.270;2022-10-18T16:47:47;10.40;14.60
1021;DHT22;499;42.648;23.270;2022-10-18T16:50:16;10.30;15.00
1021;DHT22;499;42.648;23.270;2022-10-18T16:52:44;10.20;14.50
1021;DHT22;499;42.648;23.270;2022-10-18T16:55:11;10.20;14.40
1021;DHT22;499;42.648;23.270;2022-10-18T16:57:47;10.20;14.80
1021;DHT22;499;42.648;23.270;2022-10-18T17:00:17;10.10;15.60
1021;DHT22;499;42.648;23.270;2022-10-18T17:02:47;10.10;15.50
1021;DHT22;499;42.648;23.270;2022-10-18T17:05:14;10.10;15.30